createdAt,value
2022-10-26T00:00:05.867Z,98.55
2022-10-26T00:01:05.934Z,98.55
2022-10-26T00:02:06.198Z,98.55
2022-10-26T00:03:05.810Z,98.55
2022-10-26T00:04:05.787Z,98.45
2022-10-26T00:05:05.903Z,98.45
2022-10-26T00:06:05.760Z,98.45
2022-10-26T00:07:05.771Z,98.45
2022-10-26T00:08:06.198Z,98.45
2022-10-26T00:09:05.791Z,98.55
2022-10-26T00:10:06.195Z,98.55
2022-10-26T00:11:06.303Z,98.55
2022-10-26T00:12:05.719Z,98.50
2022-10-26T00:13:05.727Z,98.41
2022-10-26T00:14:05.679Z,98.45
2022-10-26T00:15:05.734Z,98.30
2022-10-26T00:16:05.649Z,98.30
2022-10-26T00:17:05.670Z,98.30
2022-10-26T00:18:05.630Z,98.30
2022-10-26T00:19:06.348Z,98.30
2022-10-26T00:20:05.608Z,98.20
2022-10-26T00:21:06.071Z,98.20
2022-10-26T00:22:05.626Z,98.20
2022-10-26T00:23:05.603Z,98.20
2022-10-26T00:24:06.227Z,98.20
2022-10-26T00:25:06.261Z,98.20
2022-10-26T00:26:05.538Z,98.20
2022-10-26T00:27:05.564Z,98.20
2022-10-26T00:28:05.536Z,98.20
2022-10-26T00:29:05.531Z,98.20
2022-10-26T00:30:06.339Z,98.10
2022-10-26T00:31:05.521Z,98.10
2022-10-26T00:32:05.525Z,98.10
2022-10-26T00:33:05.491Z,98.10
2022-10-26T00:34:05.467Z,98.10
2022-10-26T00:35:15.824Z,98.10
2022-10-26T00:36:06.474Z,98.10
2022-10-26T00:37:05.454Z,98.10
2022-10-26T00:38:05.436Z,98.10
2022-10-26T00:39:05.419Z,98.10
2022-10-26T00:40:05.396Z,98.10
2022-10-26T00:41:05.506Z,98.10
2022-10-26T00:42:05.356Z,98.10
2022-10-26T00:43:05.358Z,98.10
2022-10-26T00:44:05.336Z,98.20
2022-10-26T00:45:05.535Z,98.20
2022-10-26T00:46:05.616Z,98.20
2022-10-26T00:47:05.328Z,98.20
2022-10-26T00:48:05.296Z,98.20
2022-10-26T00:49:05.380Z,98.20
2022-10-26T00:50:05.348Z,98.15
2022-10-26T00:51:05.357Z,98.25
2022-10-26T00:52:05.274Z,98.25
2022-10-26T00:53:05.266Z,98.25
2022-10-26T00:54:05.249Z,98.25
2022-10-26T00:55:05.307Z,98.15
2022-10-26T00:56:05.216Z,98.15
2022-10-26T00:57:05.239Z,98.05
2022-10-26T00:58:05.202Z,97.95
2022-10-26T00:59:05.195Z,97.95
2022-10-26T01:00:05.204Z,97.85
2022-10-26T01:01:05.249Z,97.85
2022-10-26T01:02:05.143Z,97.74
2022-10-26T01:03:05.145Z,97.74
2022-10-26T01:04:05.212Z,97.74
2022-10-26T01:05:05.149Z,97.74
2022-10-26T01:06:05.106Z,97.85
2022-10-26T01:07:05.105Z,97.85
2022-10-26T01:08:05.155Z,97.85
2022-10-26T01:09:05.079Z,97.80
2022-10-26T01:10:05.177Z,97.90
2022-10-26T01:11:05.186Z,97.90
2022-10-26T01:12:05.187Z,97.90
2022-10-26T01:13:05.095Z,97.90
2022-10-26T01:14:05.023Z,97.90
2022-10-26T01:15:05.017Z,97.90
2022-10-26T01:16:04.994Z,97.90
2022-10-26T01:17:05.028Z,97.90
2022-10-26T01:18:04.973Z,97.90
2022-10-26T01:19:05.036Z,97.90
2022-10-26T01:20:04.954Z,97.90
2022-10-26T01:21:04.954Z,97.90
2022-10-26T01:22:04.955Z,97.90
2022-10-26T01:23:04.925Z,97.90
2022-10-26T01:24:04.902Z,97.86
2022-10-26T01:25:05.088Z,97.86
2022-10-26T01:26:04.892Z,97.86
2022-10-26T01:27:04.904Z,97.86
2022-10-26T01:28:04.881Z,97.75
2022-10-26T01:29:04.895Z,97.75
2022-10-26T01:30:04.834Z,97.75
2022-10-26T01:31:04.844Z,97.75
2022-10-26T01:32:04.824Z,97.75
2022-10-26T01:33:04.853Z,97.75
2022-10-26T01:34:05.166Z,97.75
2022-10-26T01:35:05.164Z,97.75
2022-10-26T01:36:04.781Z,97.75
2022-10-26T01:37:04.794Z,97.75
2022-10-26T01:38:04.751Z,97.75
2022-10-26T01:39:04.745Z,97.75
2022-10-26T01:40:04.740Z,97.61
2022-10-26T01:41:05.292Z,97.61
2022-10-26T01:42:04.704Z,97.71
2022-10-26T01:43:04.766Z,97.81
2022-10-26T01:44:04.750Z,97.81
2022-10-26T01:45:04.684Z,97.71
2022-10-26T01:46:04.665Z,97.61
2022-10-26T01:47:04.929Z,97.50
2022-10-26T01:48:04.646Z,97.50
2022-10-26T01:49:04.653Z,97.40
2022-10-26T01:50:04.654Z,97.30
2022-10-26T01:51:04.622Z,97.30
2022-10-26T01:52:04.752Z,97.30
2022-10-26T01:53:04.809Z,97.19
2022-10-26T01:54:04.874Z,97.19
2022-10-26T01:55:04.676Z,97.30
2022-10-26T01:56:04.564Z,97.30
2022-10-26T01:57:04.572Z,97.30
2022-10-26T01:58:04.536Z,97.40
2022-10-26T01:59:04.536Z,97.40
2022-10-26T02:00:04.522Z,97.50
2022-10-26T02:01:04.560Z,97.50
2022-10-26T02:02:04.493Z,97.50
2022-10-26T02:03:04.500Z,97.50
2022-10-26T02:04:04.521Z,97.50
2022-10-26T02:05:04.632Z,97.61
2022-10-26T02:06:04.469Z,97.61
2022-10-26T02:07:04.474Z,97.61
2022-10-26T02:08:04.424Z,97.61
2022-10-26T02:09:04.434Z,97.71
2022-10-26T02:10:04.670Z,97.71
2022-10-26T02:11:04.392Z,97.71
2022-10-26T02:12:04.375Z,97.71
2022-10-26T02:13:04.692Z,97.81
2022-10-26T02:14:04.757Z,97.81
2022-10-26T02:15:04.460Z,97.81
2022-10-26T02:16:04.342Z,97.81
2022-10-26T02:17:04.350Z,97.91
2022-10-26T02:18:04.315Z,97.91
2022-10-26T02:19:04.302Z,97.81
2022-10-26T02:20:04.287Z,97.81
2022-10-26T02:21:04.282Z,97.71
2022-10-26T02:22:04.259Z,97.71
2022-10-26T02:23:04.276Z,97.77
2022-10-26T02:24:04.355Z,97.87
2022-10-26T02:25:04.568Z,97.97
2022-10-26T02:26:04.287Z,97.97
2022-10-26T02:27:04.213Z,98.07
2022-10-26T02:28:04.201Z,98.07
2022-10-26T02:29:04.206Z,98.18
2022-10-26T02:30:04.398Z,98.18
2022-10-26T02:31:04.173Z,98.18
2022-10-26T02:32:04.182Z,98.28
2022-10-26T02:33:04.213Z,98.28
2022-10-26T02:34:04.153Z,98.28
2022-10-26T02:35:04.159Z,98.28
2022-10-26T02:36:04.151Z,98.33
2022-10-26T02:37:04.113Z,98.33
2022-10-26T02:38:04.143Z,98.33
2022-10-26T02:39:04.171Z,98.24
2022-10-26T02:40:04.309Z,98.24
2022-10-26T02:41:04.061Z,98.24
2022-10-26T02:42:04.038Z,98.24
2022-10-26T02:43:04.379Z,98.13
2022-10-26T02:44:04.020Z,98.13
2022-10-26T02:45:04.380Z,98.03
2022-10-26T02:46:03.993Z,97.92
2022-10-26T02:47:03.991Z,97.92
2022-10-26T02:48:04.021Z,97.92
2022-10-26T02:49:03.969Z,97.92
2022-10-26T02:50:03.964Z,98.03
2022-10-26T02:51:03.981Z,98.03
2022-10-26T02:52:03.937Z,98.03
2022-10-26T02:53:03.910Z,98.03
2022-10-26T02:54:04.496Z,98.03
2022-10-26T02:55:03.957Z,98.03
2022-10-26T02:56:03.968Z,98.03
2022-10-26T02:57:03.904Z,98.03
2022-10-26T02:58:03.890Z,97.99
2022-10-26T02:59:03.842Z,98.08
2022-10-26T03:00:04.237Z,98.08
2022-10-26T03:01:03.919Z,98.08
2022-10-26T03:02:03.849Z,98.08
2022-10-26T03:03:03.819Z,98.08
2022-10-26T03:04:03.878Z,98.08
2022-10-26T03:05:03.920Z,98.19
2022-10-26T03:06:03.781Z,98.19
2022-10-26T03:07:03.755Z,98.29
2022-10-26T03:08:03.752Z,98.29
2022-10-26T03:09:03.728Z,98.29
2022-10-26T03:10:03.776Z,98.29
2022-10-26T03:11:04.071Z,98.39
2022-10-26T03:12:03.739Z,98.39
2022-10-26T03:13:03.698Z,98.50
2022-10-26T03:14:03.827Z,98.55
2022-10-26T03:15:03.708Z,98.76
2022-10-26T03:16:03.907Z,98.76
2022-10-26T03:17:03.909Z,98.86
2022-10-26T03:18:03.647Z,98.86
2022-10-26T03:19:03.731Z,98.86
2022-10-26T03:20:03.666Z,98.86
2022-10-26T03:21:03.612Z,98.86
2022-10-26T03:22:03.628Z,98.86
2022-10-26T03:23:03.585Z,98.86
2022-10-26T03:24:03.586Z,98.86
2022-10-26T03:25:03.598Z,98.86
2022-10-26T03:26:03.994Z,98.76
2022-10-26T03:27:03.683Z,98.76
2022-10-26T03:28:04.194Z,98.76
2022-10-26T03:29:03.525Z,98.76
2022-10-26T03:30:03.519Z,98.76
2022-10-26T03:31:03.499Z,98.66
2022-10-26T03:32:03.496Z,98.66
2022-10-26T03:33:03.631Z,98.66
2022-10-26T03:34:03.646Z,98.66
2022-10-26T03:35:03.717Z,98.66
2022-10-26T03:36:03.633Z,98.66
2022-10-26T03:37:03.628Z,98.76
2022-10-26T03:38:03.853Z,98.76
2022-10-26T03:39:03.846Z,98.76
2022-10-26T03:40:03.967Z,98.76
2022-10-26T03:41:03.739Z,98.86
2022-10-26T03:42:03.380Z,98.86
2022-10-26T03:43:03.346Z,98.86
2022-10-26T03:44:03.487Z,98.86
2022-10-26T03:45:03.486Z,98.86
2022-10-26T03:46:03.328Z,98.86
2022-10-26T03:47:03.319Z,98.96
2022-10-26T03:48:03.315Z,98.96
2022-10-26T03:49:03.306Z,98.96
2022-10-26T03:50:03.427Z,98.96
2022-10-26T03:51:03.431Z,98.96
2022-10-26T03:52:03.286Z,98.96
2022-10-26T03:53:03.246Z,98.96
2022-10-26T03:54:03.277Z,98.96
2022-10-26T03:55:03.265Z,98.96
2022-10-26T03:56:03.265Z,98.96
2022-10-26T03:57:03.353Z,98.96
2022-10-26T03:58:03.196Z,98.96
2022-10-26T03:59:03.271Z,98.96
2022-10-26T04:00:04.788Z,98.96
2022-10-26T04:01:03.237Z,98.96
2022-10-26T04:02:03.157Z,98.92
2022-10-26T04:03:03.155Z,98.96
2022-10-26T04:04:03.179Z,98.96
2022-10-26T04:05:03.127Z,98.96
2022-10-26T04:06:03.130Z,99.07
2022-10-26T04:07:03.128Z,99.02
2022-10-26T04:08:03.180Z,99.07
2022-10-26T04:09:03.074Z,99.07
2022-10-26T04:10:03.262Z,99.02
2022-10-26T04:11:04.613Z,99.12
2022-10-26T04:12:03.100Z,99.12
2022-10-26T04:13:03.166Z,99.12
2022-10-26T04:14:03.027Z,99.12
2022-10-26T04:16:03.089Z,99.12
2022-10-26T04:17:03.086Z,99.12
2022-10-26T04:18:03.219Z,99.22
2022-10-26T04:19:03.205Z,99.43
2022-10-26T04:20:03.215Z,99.54
2022-10-26T04:21:02.936Z,99.54
2022-10-26T04:22:02.925Z,99.43
2022-10-26T04:23:02.899Z,99.43
2022-10-26T04:24:02.940Z,99.43
2022-10-26T04:25:02.944Z,99.43
2022-10-26T04:26:02.934Z,99.43
2022-10-26T04:27:03.059Z,99.43
2022-10-26T04:28:02.868Z,99.43
2022-10-26T04:29:02.857Z,99.43
2022-10-26T04:30:03.191Z,99.33
2022-10-26T04:31:02.837Z,99.33
2022-10-26T04:32:02.837Z,99.33
2022-10-26T04:33:02.826Z,99.33
2022-10-26T04:34:02.808Z,99.33
2022-10-26T04:35:03.280Z,99.33
2022-10-26T04:36:03.235Z,99.43
2022-10-26T04:37:03.241Z,99.43
2022-10-26T04:38:02.834Z,99.43
2022-10-26T04:39:02.766Z,99.43
2022-10-26T04:40:03.301Z,99.43
2022-10-26T04:41:03.268Z,99.43
2022-10-26T04:42:02.807Z,99.43
2022-10-26T04:43:02.695Z,99.54
2022-10-26T04:44:02.684Z,99.54
2022-10-26T04:45:02.874Z,99.54
2022-10-26T04:46:02.891Z,99.54
2022-10-26T04:47:02.635Z,99.54
2022-10-26T04:48:02.645Z,99.54
2022-10-26T04:49:02.616Z,99.54
2022-10-26T04:50:02.828Z,99.54
2022-10-26T04:51:03.115Z,99.63
2022-10-26T04:52:03.132Z,99.63
2022-10-26T04:53:02.568Z,99.63
2022-10-26T04:54:02.583Z,99.63
2022-10-26T04:55:02.566Z,99.63
2022-10-26T04:56:02.584Z,99.74
2022-10-26T04:57:02.864Z,99.74
2022-10-26T04:58:02.711Z,99.74
2022-10-26T04:59:02.566Z,99.74
2022-10-26T05:00:02.584Z,99.74
2022-10-26T05:01:02.537Z,99.84
2022-10-26T05:02:02.683Z,99.84
2022-10-26T05:03:02.624Z,99.84
2022-10-26T05:04:02.486Z,99.84
2022-10-26T05:06:02.445Z,99.79
2022-10-26T05:07:02.524Z,99.79
2022-10-26T05:08:02.642Z,99.79
2022-10-26T05:09:02.937Z,99.79
2022-10-26T05:10:02.446Z,99.84
2022-10-26T05:11:02.375Z,99.84
2022-10-26T05:12:02.999Z,99.84
2022-10-26T05:13:03.082Z,99.79
2022-10-26T05:14:02.454Z,99.79
2022-10-26T05:15:06.344Z,99.79
2022-10-26T05:16:04.164Z,99.79
2022-10-26T05:17:02.311Z,99.90
2022-10-26T05:18:03.193Z,99.90
2022-10-26T05:19:02.312Z,99.90
2022-10-26T05:20:02.309Z,99.90
2022-10-26T05:21:02.263Z,99.99
2022-10-26T05:22:02.267Z,99.99
2022-10-26T05:23:02.248Z,99.99
2022-10-26T05:24:02.247Z,99.99
2022-10-26T05:25:02.243Z,99.99
2022-10-26T05:26:02.235Z,99.90
2022-10-26T05:27:02.205Z,99.90
2022-10-26T05:28:02.217Z,99.90
2022-10-26T05:29:02.164Z,99.90
2022-10-26T05:30:02.326Z,99.90
2022-10-26T05:31:02.167Z,99.90
2022-10-26T05:32:02.164Z,99.99
2022-10-26T05:33:03.009Z,99.99
2022-10-26T05:34:02.413Z,99.95
2022-10-26T05:35:02.120Z,99.95
2022-10-26T05:36:02.115Z,99.95
2022-10-26T05:37:02.117Z,99.95
2022-10-26T05:38:02.140Z,99.99
2022-10-26T05:39:02.123Z,99.99
2022-10-26T05:40:02.245Z,99.99
2022-10-26T05:41:02.254Z,99.99
2022-10-26T05:42:02.044Z,99.99
2022-10-26T05:43:02.024Z,99.95
2022-10-26T05:44:02.074Z,99.85
2022-10-26T05:45:02.187Z,99.85
2022-10-26T05:46:02.283Z,99.85
2022-10-26T05:47:01.984Z,99.85
2022-10-26T05:48:03.153Z,99.85
2022-10-26T05:49:02.021Z,99.85
2022-10-26T05:50:02.206Z,99.75
2022-10-26T05:51:01.935Z,99.75
2022-10-26T05:52:01.981Z,99.75
2022-10-26T05:53:01.895Z,99.75
2022-10-26T05:54:01.921Z,99.85
2022-10-26T05:55:01.954Z,99.85
2022-10-26T05:56:04.048Z,99.85
2022-10-26T05:57:01.874Z,99.80
2022-10-26T05:58:02.061Z,99.80
2022-10-26T05:59:02.059Z,99.91
2022-10-26T06:00:02.171Z,99.91
2022-10-26T06:01:01.824Z,99.91
2022-10-26T06:02:01.927Z,99.91
2022-10-26T06:03:01.805Z,99.91
2022-10-26T06:04:01.790Z,99.91
2022-10-26T06:05:01.767Z,99.91
2022-10-26T06:06:04.001Z,99.91
2022-10-26T06:07:02.225Z,99.91
2022-10-26T06:08:01.824Z,99.91
2022-10-26T06:09:01.839Z,99.91
2022-10-26T06:10:01.739Z,99.91
2022-10-26T06:11:01.858Z,99.91
2022-10-26T06:12:01.744Z,99.80
2022-10-26T06:13:01.742Z,99.80
2022-10-26T06:14:01.695Z,99.80
2022-10-26T06:15:01.678Z,99.80
2022-10-26T06:16:01.660Z,99.70
2022-10-26T06:17:01.772Z,99.70
2022-10-26T06:18:01.793Z,99.70
2022-10-26T06:19:02.277Z,99.80
2022-10-26T06:20:01.695Z,99.76
2022-10-26T06:21:01.588Z,99.76
2022-10-26T06:22:01.581Z,99.76
2022-10-26T06:23:01.584Z,99.76
2022-10-26T06:24:01.574Z,99.76
2022-10-26T06:25:01.543Z,99.76
2022-10-26T06:26:01.537Z,99.76
2022-10-26T06:27:01.519Z,99.76
2022-10-26T06:28:01.535Z,99.76
2022-10-26T06:29:01.495Z,99.76
2022-10-26T06:30:01.567Z,99.76
2022-10-26T06:31:01.595Z,99.86
2022-10-26T06:32:01.471Z,99.86
2022-10-26T06:33:11.450Z,99.86
2022-10-26T06:34:02.712Z,99.86
2022-10-26T06:35:06.217Z,99.86
2022-10-26T06:36:02.539Z,99.86
2022-10-26T06:37:01.411Z,99.86
2022-10-26T06:38:01.930Z,99.91
2022-10-26T06:39:01.936Z,99.91
2022-10-26T06:40:02.038Z,99.91
2022-10-26T06:41:01.839Z,99.91
2022-10-26T06:42:01.848Z,99.91
2022-10-26T06:43:01.342Z,99.91
2022-10-26T06:44:01.343Z,99.91
2022-10-26T06:45:01.341Z,99.91
2022-10-26T06:46:01.315Z,99.91
2022-10-26T06:47:01.297Z,99.91
2022-10-26T06:48:01.312Z,99.87
2022-10-26T06:49:01.323Z,99.87
2022-10-26T06:50:01.269Z,99.87
2022-10-26T06:51:01.259Z,99.87
2022-10-26T06:52:01.290Z,99.77
2022-10-26T06:53:01.315Z,99.77
2022-10-26T06:54:01.231Z,99.66
2022-10-26T06:55:01.192Z,99.66
2022-10-26T06:56:01.200Z,99.66
2022-10-26T06:57:01.179Z,99.56
2022-10-26T06:58:01.182Z,99.56
2022-10-26T06:59:03.464Z,99.56
2022-10-26T07:00:02.489Z,99.41
2022-10-26T07:01:01.126Z,99.41
2022-10-26T07:02:04.204Z,99.41
2022-10-26T07:03:02.221Z,99.41
2022-10-26T07:04:01.118Z,99.41
2022-10-26T07:05:01.108Z,99.31
2022-10-26T07:06:01.077Z,99.31
2022-10-26T07:07:01.206Z,99.31
2022-10-26T07:08:01.053Z,99.31
2022-10-26T07:09:01.240Z,99.31
2022-10-26T07:10:01.031Z,99.31
2022-10-26T07:11:01.039Z,99.31
2022-10-26T07:12:01.000Z,99.27
2022-10-26T07:13:01.019Z,99.27
2022-10-26T07:14:01.149Z,99.27
2022-10-26T07:15:01.082Z,99.16
2022-10-26T07:16:00.959Z,99.16
2022-10-26T07:17:00.969Z,99.16
2022-10-26T07:18:00.934Z,99.06
2022-10-26T07:19:01.324Z,98.96
2022-10-26T07:20:01.196Z,98.96
2022-10-26T07:21:01.100Z,98.86
2022-10-26T07:22:00.901Z,98.86
2022-10-26T07:23:00.926Z,98.86
2022-10-26T07:24:00.873Z,98.75
2022-10-26T07:25:03.058Z,98.75
2022-10-26T07:26:00.843Z,98.75
2022-10-26T07:27:00.852Z,98.75
2022-10-26T07:28:00.846Z,98.65
2022-10-26T07:29:00.843Z,98.65
2022-10-26T07:30:00.804Z,98.65
2022-10-26T07:31:00.853Z,98.65
2022-10-26T07:32:00.790Z,98.65
2022-10-26T07:33:00.790Z,98.65
2022-10-26T07:34:00.770Z,98.65
2022-10-26T07:35:00.760Z,98.55
2022-10-26T07:36:00.994Z,98.55
2022-10-26T07:37:00.769Z,98.55
2022-10-26T07:38:00.910Z,98.50
2022-10-26T07:39:00.793Z,98.50
2022-10-26T07:40:05.597Z,98.50
2022-10-26T07:41:01.754Z,98.40
2022-10-26T07:42:00.744Z,98.40
2022-10-26T07:43:00.668Z,98.40
2022-10-26T07:44:00.646Z,98.40
2022-10-26T07:45:00.666Z,98.40
2022-10-26T07:46:00.639Z,98.40
2022-10-26T07:47:00.666Z,98.40
2022-10-26T07:48:00.624Z,98.40
2022-10-26T07:49:00.605Z,98.40
2022-10-26T07:50:00.592Z,98.40
2022-10-26T07:51:02.844Z,98.40
2022-10-26T07:52:00.575Z,98.40
2022-10-26T07:53:00.600Z,98.36
2022-10-26T07:54:00.531Z,98.25
2022-10-26T07:55:00.540Z,98.25
2022-10-26T07:56:00.529Z,98.25
2022-10-26T07:57:00.553Z,98.15
2022-10-26T07:58:01.843Z,98.05
2022-10-26T07:59:00.497Z,98.05
2022-10-26T08:00:00.465Z,98.05
2022-10-26T08:01:00.520Z,98.15
2022-10-26T08:02:00.533Z,98.05
2022-10-26T08:03:00.468Z,98.05
2022-10-26T08:04:00.440Z,98.05
2022-10-26T08:05:00.427Z,98.00
2022-10-26T08:06:00.421Z,98.00
2022-10-26T08:07:00.489Z,98.00
2022-10-26T08:08:00.391Z,97.90
2022-10-26T08:09:00.600Z,97.80
2022-10-26T08:10:00.377Z,97.55
2022-10-26T08:11:00.360Z,97.45
2022-10-26T08:12:00.341Z,97.24
2022-10-26T08:13:00.347Z,97.24
2022-10-26T08:14:00.342Z,97.14
2022-10-26T08:15:00.337Z,96.79
2022-10-26T08:16:00.325Z,96.69
2022-10-26T08:17:00.358Z,96.69
2022-10-26T08:18:00.296Z,96.69
2022-10-26T08:19:00.271Z,96.69
2022-10-26T08:20:00.287Z,96.59
2022-10-26T08:21:10.120Z,96.59
2022-10-26T08:22:01.377Z,96.48
2022-10-26T08:23:00.292Z,96.23
2022-10-26T08:24:00.283Z,96.34
2022-10-26T08:25:00.200Z,96.34
2022-10-26T08:26:00.189Z,96.34
2022-10-26T08:27:00.207Z,96.34
2022-10-26T08:28:00.183Z,96.34
2022-10-26T08:29:00.154Z,96.23
2022-10-26T08:30:00.142Z,96.19
2022-10-26T08:31:00.141Z,95.89
2022-10-26T08:32:00.119Z,95.58
2022-10-26T08:33:00.120Z,95.37
2022-10-26T08:34:00.114Z,95.48
2022-10-26T08:35:00.097Z,95.48
2022-10-26T08:36:00.083Z,95.48
2022-10-26T08:37:00.078Z,95.43
2022-10-26T08:38:00.076Z,95.23
2022-10-26T08:40:02.962Z,95.23
2022-10-26T08:41:00.029Z,95.18
2022-10-26T08:42:00.379Z,94.98
2022-10-26T08:43:00.247Z,94.78
2022-10-26T08:43:59.983Z,94.53
2022-10-26T08:44:59.989Z,94.23
2022-10-26T08:45:59.984Z,93.98
2022-10-26T08:46:59.968Z,93.43
2022-10-26T08:48:00.302Z,92.47
2022-10-26T08:48:59.940Z,91.25
2022-10-26T08:49:59.918Z,91.30
2022-10-26T08:50:59.910Z,90.86
2022-10-26T08:51:59.903Z,89.84
2022-10-26T08:52:59.918Z,88.21
2022-10-26T08:53:59.871Z,87.67
2022-10-26T08:54:59.888Z,85.84
2022-10-26T08:55:59.871Z,85.44
2022-10-26T08:56:59.850Z,84.83
2022-10-26T08:57:59.820Z,84.08
2022-10-26T08:58:59.818Z,84.48
2022-10-26T08:59:59.826Z,84.28
2022-10-26T09:00:59.869Z,82.96
2022-10-26T09:01:59.819Z,83.17
2022-10-26T09:03:00.010Z,83.23
2022-10-26T09:04:59.768Z,82.92
2022-10-26T09:05:59.739Z,82.98
2022-10-26T09:07:00.615Z,82.38
2022-10-26T09:07:59.710Z,82.98
2022-10-26T09:08:59.708Z,82.95
2022-10-26T09:09:59.701Z,82.84
2022-10-26T09:10:59.679Z,82.34
2022-10-26T09:11:59.671Z,82.30
2022-10-26T09:12:59.717Z,79.97
2022-10-26T09:14:00.009Z,79.77
2022-10-26T09:14:59.660Z,80.58
2022-10-26T09:15:59.762Z,80.07
2022-10-26T09:16:59.619Z,79.36
2022-10-26T09:17:59.599Z,79.06
2022-10-26T09:19:01.865Z,79.33
2022-10-26T09:19:59.593Z,78.82
2022-10-26T09:20:59.607Z,77.91
2022-10-26T09:21:59.880Z,77.91
2022-10-26T09:23:00.303Z,78.88
2022-10-26T09:23:59.658Z,78.68
2022-10-26T09:25:02.871Z,78.28
2022-10-26T09:26:01.031Z,77.97
2022-10-26T09:26:59.561Z,77.03
2022-10-26T09:27:59.517Z,77.53
2022-10-26T09:28:59.798Z,76.02
2022-10-26T09:29:59.469Z,77.43
2022-10-26T09:30:59.477Z,77.84
2022-10-26T09:31:59.458Z,77.09
2022-10-26T09:32:59.460Z,76.28
2022-10-26T09:33:59.418Z,76.18
2022-10-26T09:34:59.520Z,76.18
2022-10-26T09:35:59.496Z,76.08
2022-10-26T09:36:59.908Z,76.59
2022-10-26T09:37:59.382Z,76.35
2022-10-26T09:38:59.384Z,76.04
2022-10-26T09:39:59.360Z,75.74
2022-10-26T09:40:59.390Z,75.84
2022-10-26T09:42:00.026Z,75.84
2022-10-26T09:42:59.344Z,75.31
2022-10-26T09:43:59.324Z,75.81
2022-10-26T09:44:59.319Z,75.10
2022-10-26T09:45:59.286Z,75.10
2022-10-26T09:46:59.316Z,74.90
2022-10-26T09:48:02.685Z,75.00
2022-10-26T09:49:00.376Z,75.31
2022-10-26T09:49:59.238Z,75.10
2022-10-26T09:51:01.982Z,75.20
2022-10-26T09:52:00.318Z,75.98
2022-10-26T09:52:59.252Z,75.07
2022-10-26T09:53:59.198Z,75.37
2022-10-26T09:54:59.230Z,74.05
2022-10-26T09:55:59.175Z,74.56
2022-10-26T09:56:59.190Z,74.87
2022-10-26T09:57:59.170Z,74.87
2022-10-26T09:58:59.175Z,74.46
2022-10-26T09:59:59.131Z,74.76
2022-10-26T10:00:59.236Z,75.00
2022-10-26T10:01:59.296Z,75.31
2022-10-26T10:02:59.258Z,74.84
2022-10-26T10:03:59.154Z,75.34
2022-10-26T10:04:59.162Z,76.04
2022-10-26T10:05:59.084Z,76.48
2022-10-26T10:06:59.100Z,76.48
2022-10-26T10:07:59.081Z,76.79
2022-10-26T10:08:59.055Z,76.48
2022-10-26T10:09:59.180Z,76.52
2022-10-26T10:10:59.010Z,77.33
2022-10-26T10:11:59.300Z,78.04
2022-10-26T10:12:59.331Z,77.53
2022-10-26T10:13:59.437Z,77.37
2022-10-26T10:14:59.331Z,77.57
2022-10-26T10:15:59.140Z,77.77
2022-10-26T10:16:59.058Z,78.08
2022-10-26T10:17:59.317Z,77.97
2022-10-26T10:18:58.962Z,78.17
2022-10-26T10:19:58.920Z,78.34
2022-10-26T10:20:58.933Z,77.84
2022-10-26T10:21:58.892Z,77.43
2022-10-26T10:22:58.918Z,77.70
2022-10-26T10:23:58.996Z,77.09
2022-10-26T10:24:59.265Z,76.55
2022-10-26T10:25:59.125Z,76.15
2022-10-26T10:26:59.113Z,75.40
2022-10-26T10:27:58.826Z,75.81
2022-10-26T10:28:58.844Z,74.87
2022-10-26T10:30:03.067Z,74.66
2022-10-26T10:30:59.833Z,75.03
2022-10-26T10:31:58.835Z,74.32
2022-10-26T10:32:58.783Z,73.82
2022-10-26T10:33:58.769Z,73.79
2022-10-26T10:34:58.766Z,72.78
2022-10-26T10:35:58.752Z,72.78
2022-10-26T10:36:58.970Z,73.48
2022-10-26T10:37:58.712Z,72.88
2022-10-26T10:38:58.711Z,72.58
2022-10-26T10:39:58.705Z,72.78
2022-10-26T10:40:58.691Z,72.44
2022-10-26T10:41:58.708Z,72.94
2022-10-26T10:42:58.814Z,72.14
2022-10-26T10:43:58.922Z,72.64
2022-10-26T10:44:58.939Z,71.53
2022-10-26T10:45:59.728Z,71.53
2022-10-26T10:46:58.646Z,71.84
2022-10-26T10:47:58.750Z,71.84
2022-10-26T10:48:58.615Z,71.64
2022-10-26T10:49:58.585Z,71.33
2022-10-26T10:50:58.590Z,71.33
2022-10-26T10:51:58.575Z,72.14
2022-10-26T10:52:58.563Z,71.53
2022-10-26T10:53:58.992Z,72.24
2022-10-26T10:54:58.564Z,72.00
2022-10-26T10:55:58.539Z,71.70
2022-10-26T10:56:58.522Z,71.84
2022-10-26T10:57:58.514Z,72.14
2022-10-26T10:58:59.244Z,72.34
2022-10-26T10:59:58.464Z,72.24
2022-10-26T11:00:58.484Z,72.04
2022-10-26T11:01:58.820Z,72.24
2022-10-26T11:02:58.454Z,71.70
2022-10-26T11:03:58.419Z,72.11
2022-10-26T11:04:58.452Z,71.20
2022-10-26T11:05:58.859Z,71.06
2022-10-26T11:06:58.990Z,71.26
2022-10-26T11:07:58.383Z,70.86
2022-10-26T11:08:58.994Z,71.06
2022-10-26T11:09:59.103Z,71.50
2022-10-26T11:10:58.362Z,71.91
2022-10-26T11:11:58.331Z,71.40
2022-10-26T11:12:58.376Z,71.44
2022-10-26T11:13:58.315Z,71.84
2022-10-26T11:14:58.359Z,72.58
2022-10-26T11:15:58.419Z,73.18
2022-10-26T11:16:58.290Z,73.08
2022-10-26T11:17:58.255Z,72.58
2022-10-26T11:18:58.263Z,73.18
2022-10-26T11:19:58.254Z,73.72
2022-10-26T11:21:58.223Z,73.92
2022-10-26T11:22:58.247Z,74.12
2022-10-26T11:23:58.214Z,74.12
2022-10-26T11:24:58.328Z,74.12
2022-10-26T11:25:58.294Z,73.82
2022-10-26T11:26:58.291Z,74.02
2022-10-26T11:27:58.171Z,74.22
2022-10-26T11:28:58.133Z,74.43
2022-10-26T11:29:58.152Z,73.52
2022-10-26T11:30:58.113Z,73.82
2022-10-26T11:31:58.334Z,73.52
2022-10-26T11:32:58.114Z,73.82
2022-10-26T11:34:58.077Z,73.62
2022-10-26T11:35:58.063Z,74.02
2022-10-26T11:36:58.048Z,74.08
2022-10-26T11:37:58.295Z,73.88
2022-10-26T11:38:59.243Z,73.99
2022-10-26T11:39:58.029Z,73.28
2022-10-26T11:40:57.995Z,73.48
2022-10-26T11:41:58.015Z,74.19
2022-10-26T11:42:58.208Z,74.39
2022-10-26T11:43:57.977Z,73.99
2022-10-26T11:44:58.013Z,73.68
2022-10-26T11:46:58.022Z,73.99
2022-10-26T11:47:58.050Z,74.29
2022-10-26T11:48:57.895Z,73.88
2022-10-26T11:49:57.910Z,74.08
2022-10-26T11:50:57.897Z,73.88
2022-10-26T11:51:57.884Z,74.08
2022-10-26T11:52:57.857Z,74.08
2022-10-26T11:53:58.090Z,74.26
2022-10-26T11:54:57.845Z,73.65
2022-10-26T11:55:57.842Z,73.45
2022-10-26T11:56:57.847Z,73.21
2022-10-26T11:57:58.101Z,72.91
2022-10-26T11:58:58.127Z,72.47
2022-10-26T11:59:58.119Z,71.87
2022-10-26T12:00:57.774Z,71.67
2022-10-26T12:01:57.775Z,71.67
2022-10-26T12:02:57.779Z,71.16
2022-10-26T12:03:57.754Z,71.77
2022-10-26T12:04:57.939Z,71.77
2022-10-26T12:05:58.052Z,72.07
2022-10-26T12:06:57.964Z,71.77
2022-10-26T12:07:59.179Z,72.47
2022-10-26T12:08:57.677Z,71.67
2022-10-26T12:09:57.696Z,71.36
2022-10-26T12:10:57.747Z,71.36
2022-10-26T12:11:57.657Z,71.87
2022-10-26T12:12:57.644Z,71.10
2022-10-26T12:13:57.653Z,71.40
2022-10-26T12:14:57.649Z,71.40
2022-10-26T12:16:03.554Z,71.67
2022-10-26T12:17:00.055Z,70.79
2022-10-26T12:17:57.597Z,71.47
2022-10-26T12:18:57.566Z,71.87
2022-10-26T12:19:57.588Z,71.63
2022-10-26T12:20:57.568Z,71.13
2022-10-26T12:21:57.856Z,70.70
2022-10-26T12:22:57.564Z,71.00
2022-10-26T12:23:57.537Z,69.85
2022-10-26T12:24:58.315Z,69.25
2022-10-26T12:25:58.300Z,69.25
2022-10-26T12:26:57.977Z,69.22
2022-10-26T12:27:57.576Z,68.55
2022-10-26T12:28:57.559Z,68.65
2022-10-26T12:29:57.457Z,69.45
2022-10-26T12:30:57.718Z,69.76
2022-10-26T12:31:57.719Z,69.25
2022-10-26T12:32:57.439Z,69.32
2022-10-26T12:33:57.437Z,68.92
2022-10-26T12:34:57.436Z,68.02
2022-10-26T12:35:57.478Z,68.32
2022-10-26T12:36:57.379Z,68.82
2022-10-26T12:37:57.376Z,68.72
2022-10-26T12:38:57.340Z,68.32
2022-10-26T12:39:57.403Z,68.21
2022-10-26T12:40:57.342Z,68.72
2022-10-26T12:41:57.341Z,69.15
2022-10-26T12:42:57.383Z,68.85
2022-10-26T12:43:57.298Z,69.15
2022-10-26T12:44:57.271Z,69.49
2022-10-26T12:45:57.298Z,69.89
2022-10-26T12:46:57.331Z,70.09
2022-10-26T12:47:57.318Z,70.29
2022-10-26T12:48:57.319Z,69.79
2022-10-26T12:49:57.328Z,69.76
2022-10-26T12:50:57.331Z,70.16
2022-10-26T12:51:57.390Z,69.65
2022-10-26T12:52:57.353Z,69.15
2022-10-26T12:53:57.357Z,68.41
2022-10-26T12:54:57.278Z,68.32
2022-10-26T12:55:57.204Z,68.02
2022-10-26T12:56:57.140Z,68.02
2022-10-26T12:57:57.142Z,68.41
2022-10-26T12:58:59.123Z,68.29